createdAt,value
2019-05-22T00:01:09.789Z,98260.61
2019-05-22T00:03:48.794Z,98261.97
2019-05-22T00:06:18.632Z,98268.33
2019-05-22T00:08:48.011Z,98265.53
2019-05-22T00:11:17.083Z,98259.05
2019-05-22T00:13:47.645Z,98259.05
2019-05-22T00:16:17.179Z,98263.64
2019-05-22T00:18:47.156Z,98264.70
2019-05-22T00:21:16.995Z,98265.53
2019-05-22T00:23:45.283Z,98273.17
2019-05-22T00:26:14.680Z,98264.38
2019-05-22T00:28:42.892Z,98263.54
2019-05-22T00:31:13.405Z,98263.23
2019-05-22T00:33:43.754Z,98270.63
2019-05-22T00:36:13.230Z,98265.31
2019-05-22T00:38:41.824Z,98266.79
2019-05-22T00:41:11.692Z,98269.63
2019-05-22T00:43:42.097Z,98266.59
2019-05-22T00:46:11.280Z,98274.75
2019-05-22T00:48:41.891Z,98269.63
2019-05-22T00:51:21.972Z,98267.31
2019-05-22T00:53:55.714Z,98271.71
2019-05-22T00:56:34.790Z,98262.72
2019-05-22T00:59:07.418Z,98274.75
2019-05-22T01:01:55.624Z,98271.91
2019-05-22T01:04:28.183Z,98280.19
2019-05-22T01:06:58.495Z,98278.63
2019-05-22T01:09:31.584Z,98275.07
2019-05-22T01:12:01.847Z,98279.35
2019-05-22T01:14:42.296Z,98269.20
2019-05-22T01:17:02.606Z,98280.31
2019-05-22T01:19:31.635Z,98276.31
2019-05-22T01:22:01.538Z,98281.34
2019-05-22T01:24:31.046Z,98287.71
2019-05-22T01:27:00.126Z,98285.75
2019-05-22T01:29:30.124Z,98279.88
2019-05-22T01:32:00.734Z,98284.79
2019-05-22T01:34:33.604Z,98285.95
2019-05-22T01:37:02.287Z,98284.91
2019-05-22T01:39:43.262Z,98287.63
2019-05-22T01:42:13.015Z,98290.14
2019-05-22T01:44:41.587Z,98283.98
2019-05-22T01:47:17.101Z,98283.14
2019-05-22T01:49:51.570Z,98284.70
2019-05-22T01:52:21.681Z,98284.09
2019-05-22T01:54:51.926Z,98290.14
2019-05-22T01:57:21.048Z,98289.21
2019-05-22T01:59:49.681Z,98288.58
2019-05-22T02:02:19.061Z,98292.45
2019-05-22T02:04:47.839Z,98285.57
2019-05-22T02:07:16.052Z,98283.25
2019-05-22T02:09:46.476Z,98286.92
2019-05-22T02:12:25.432Z,98292.45
2019-05-22T02:14:56.133Z,98295.70
2019-05-22T02:17:31.550Z,98300.50
2019-05-22T02:20:00.123Z,98302.28
2019-05-22T02:22:29.402Z,98301.35
2019-05-22T02:24:57.643Z,98298.71
2019-05-22T02:27:26.491Z,98299.78
2019-05-22T02:29:55.567Z,98302.70
2019-05-22T02:32:24.043Z,98311.80
2019-05-22T02:34:52.244Z,98313.16
2019-05-22T02:37:22.019Z,98314.20
2019-05-22T02:39:50.272Z,98324.42
2019-05-22T02:42:29.946Z,98317.20
2019-05-22T02:44:58.151Z,98322.31
2019-05-22T02:47:26.959Z,98326.72
2019-05-22T02:49:55.849Z,98324.42
2019-05-22T02:52:24.056Z,98323.46
2019-05-22T02:54:52.323Z,98329.41
2019-05-22T02:57:20.603Z,98329.32
2019-05-22T02:59:48.810Z,98330.78
2019-05-22T03:02:17.957Z,98331.99
2019-05-22T03:04:55.806Z,98343.39
2019-05-22T03:07:24.600Z,98335.55
2019-05-22T03:09:52.975Z,98342.34
2019-05-22T03:12:22.316Z,98339.72
2019-05-22T03:14:51.185Z,98353.42
2019-05-22T03:17:28.104Z,98349.13
2019-05-22T03:19:57.901Z,98353.63
2019-05-22T03:22:36.576Z,98349.42
2019-05-22T03:25:06.792Z,98349.36
2019-05-22T03:27:45.147Z,98353.42
2019-05-22T03:30:25.188Z,98355.08
2019-05-22T03:32:55.502Z,98352.88
2019-05-22T03:35:24.714Z,98365.27
2019-05-22T03:37:53.309Z,98358.19
2019-05-22T03:40:21.778Z,98367.92
2019-05-22T03:42:51.061Z,98368.30
2019-05-22T03:45:20.901Z,98371.12
2019-05-22T03:47:50.852Z,98378.78
2019-05-22T03:50:19.895Z,98373.51
2019-05-22T03:52:48.169Z,98379.58
2019-05-22T03:55:16.840Z,98384.92
2019-05-22T03:57:45.684Z,98380.97
2019-05-22T04:00:16.990Z,98384.20
2019-05-22T04:02:50.353Z,98391.80
2019-05-22T04:05:19.883Z,98386.70
2019-05-22T04:07:49.248Z,98394.33
2019-05-22T04:10:18.819Z,98401.82
2019-05-22T04:12:47.282Z,98394.91
2019-05-22T04:15:17.266Z,98386.05
2019-05-22T04:17:45.473Z,98396.20
2019-05-22T04:20:18.551Z,98395.64
2019-05-22T04:22:47.506Z,98393.02
2019-05-22T04:25:15.711Z,98391.38
2019-05-22T04:27:43.914Z,98398.69
2019-05-22T04:30:13.791Z,98388.77
2019-05-22T04:32:44.686Z,98395.45
2019-05-22T04:35:16.663Z,98397.88
2019-05-22T04:37:47.197Z,98400.56
2019-05-22T04:40:25.508Z,98406.87
2019-05-22T04:42:54.583Z,98411.75
2019-05-22T04:45:23.222Z,98411.03
2019-05-22T04:48:00.727Z,98406.16
2019-05-22T04:50:29.881Z,98404.95
2019-05-22T04:52:58.944Z,98405.98
2019-05-22T04:55:28.966Z,98412.88
2019-05-22T04:57:58.907Z,98415.16
2019-05-22T05:00:28.065Z,98418.44
2019-05-22T05:02:56.739Z,98423.97
2019-05-22T05:05:26.659Z,98427.33
2019-05-22T05:07:54.860Z,98430.75
2019-05-22T05:10:23.758Z,98431.49
2019-05-22T05:12:52.452Z,98436.83
2019-05-22T05:15:20.668Z,98435.61
2019-05-22T05:17:48.868Z,98427.14
2019-05-22T05:20:22.533Z,98430.56
2019-05-22T05:22:48.415Z,98437.95
2019-05-22T05:25:18.527Z,98438.52
2019-05-22T05:27:48.363Z,98439.45
2019-05-22T05:30:18.489Z,98435.05
2019-05-22T05:32:47.527Z,98437.22
2019-05-22T05:35:18.550Z,98438.34
2019-05-22T05:37:47.352Z,98438.58
2019-05-22T05:40:44.301Z,98444.84
2019-05-22T05:43:13.542Z,98452.16
2019-05-22T05:45:42.605Z,98443.77
2019-05-22T05:48:16.771Z,98450.03
2019-05-22T05:51:06.257Z,98442.92
2019-05-22T05:53:56.546Z,98448.97
2019-05-22T05:56:25.592Z,98459.21
2019-05-22T05:58:54.426Z,98457.53
2019-05-22T06:01:24.559Z,98462.30
2019-05-22T06:03:53.424Z,98461.92
2019-05-22T06:06:25.661Z,98460.28
2019-05-22T06:08:55.032Z,98457.91
2019-05-22T06:11:39.923Z,98459.64
2019-05-22T06:14:09.961Z,98464.03
2019-05-22T06:16:52.257Z,98468.06
2019-05-22T06:19:20.630Z,98471.30
2019-05-22T06:21:50.360Z,98473.48
2019-05-22T06:24:33.130Z,98473.15
2019-05-22T06:27:07.859Z,98484.02
2019-05-22T06:30:04.843Z,98480.12
2019-05-22T06:32:55.340Z,98483.95
2019-05-22T06:35:22.983Z,98492.23
2019-05-22T06:38:12.781Z,98487.55
2019-05-22T06:40:40.998Z,98493.92
2019-05-22T06:43:25.569Z,98492.56
2019-05-22T06:45:54.227Z,98498.45
2019-05-22T06:48:22.433Z,98497.09
2019-05-22T06:50:50.643Z,98495.84
2019-05-22T06:53:19.556Z,98501.46
2019-05-22T06:55:48.012Z,98496.25
2019-05-22T06:58:16.792Z,98502.95
2019-05-22T07:00:44.992Z,98500.23
2019-05-22T07:03:13.272Z,98500.33
2019-05-22T07:05:41.749Z,98505.48
2019-05-22T07:08:10.129Z,98514.14
2019-05-22T07:10:39.200Z,98516.38
2019-05-22T07:13:09.525Z,98519.89
2019-05-22T07:15:38.725Z,98517.47
2019-05-22T07:18:07.270Z,98519.89
2019-05-22T07:20:35.989Z,98525.37
2019-05-22T07:23:05.852Z,98527.73
2019-05-22T07:25:35.420Z,98530.95
2019-05-22T07:28:04.340Z,98534.00
2019-05-22T07:30:34.186Z,98532.80
2019-05-22T07:33:02.772Z,98533.13
2019-05-22T07:35:49.787Z,98544.86
2019-05-22T07:38:02.377Z,98543.74
2019-05-22T07:40:30.917Z,98546.16
2019-05-22T07:42:59.133Z,98548.03
2019-05-22T07:45:29.048Z,98544.37
2019-05-22T07:47:57.763Z,98546.50
2019-05-22T07:50:26.230Z,98552.18
2019-05-22T07:52:54.442Z,98551.64
2019-05-22T07:55:22.714Z,98545.04
2019-05-22T07:57:53.663Z,98554.02
2019-05-22T08:00:21.871Z,98559.56
2019-05-22T08:02:50.353Z,98565.50
2019-05-22T08:05:21.066Z,98564.98
2019-05-22T08:07:51.094Z,98565.83
2019-05-22T08:10:21.008Z,98565.45
2019-05-22T08:12:49.208Z,98576.17
2019-05-22T08:15:17.529Z,98569.79
2019-05-22T08:17:45.677Z,98568.87
2019-05-22T08:20:13.889Z,98572.86
2019-05-22T08:22:42.086Z,98575.31
2019-05-22T08:25:10.307Z,98575.58
2019-05-22T08:27:39.075Z,98576.77
2019-05-22T08:30:07.827Z,98578.45
2019-05-22T08:32:37.665Z,98587.43
2019-05-22T08:35:10.710Z,98593.81
2019-05-22T08:37:41.837Z,98593.89
2019-05-22T08:40:16.180Z,98596.91
2019-05-22T08:42:44.839Z,98601.56
2019-05-22T08:45:13.048Z,98601.67
2019-05-22T08:47:42.085Z,98593.02
2019-05-22T08:50:10.626Z,98600.91
2019-05-22T08:52:40.283Z,98610.33
2019-05-22T08:55:09.029Z,98606.98
2019-05-22T08:57:38.197Z,98612.27
2019-05-22T09:00:06.408Z,98614.09
2019-05-22T09:02:35.416Z,98614.17
2019-05-22T09:05:04.271Z,98616.34
2019-05-22T09:07:33.098Z,98622.02
2019-05-22T09:10:02.005Z,98623.45
2019-05-22T09:12:30.463Z,98624.80
2019-05-22T09:14:58.969Z,98628.03
2019-05-22T09:17:27.723Z,98625.64
2019-05-22T09:19:55.998Z,98633.06
2019-05-22T09:22:39.523Z,98639.64
2019-05-22T09:24:54.022Z,98634.72
2019-05-22T09:27:22.532Z,98634.42
2019-05-22T09:29:50.808Z,98637.16
2019-05-22T09:32:19.005Z,98638.09
2019-05-22T09:34:47.529Z,98644.94
2019-05-22T09:37:15.689Z,98649.27
2019-05-22T09:39:44.086Z,98648.77
2019-05-22T09:42:12.349Z,98653.28
2019-05-22T09:44:40.557Z,98656.14
2019-05-22T09:47:09.423Z,98653.88
2019-05-22T09:49:38.593Z,98662.53
2019-05-22T09:52:07.717Z,98655.52
2019-05-22T09:54:36.004Z,98654.27
2019-05-22T09:57:05.151Z,98657.02
2019-05-22T09:59:33.425Z,98657.40
2019-05-22T10:02:01.832Z,98658.26
2019-05-22T10:04:30.282Z,98666.96
2019-05-22T10:06:58.490Z,98662.98
2019-05-22T10:09:27.443Z,98662.02
2019-05-22T10:11:55.658Z,98667.10
2019-05-22T10:14:23.855Z,98668.22
2019-05-22T10:16:52.343Z,98670.46
2019-05-22T10:19:20.550Z,98672.69
2019-05-22T10:21:49.910Z,98684.28
2019-05-22T10:24:19.430Z,98675.97
2019-05-22T10:26:47.910Z,98680.15
2019-05-22T10:29:16.464Z,98682.31
2019-05-22T10:31:46.198Z,98687.99
2019-05-22T10:34:14.403Z,98688.42
2019-05-22T10:36:43.279Z,98691.57
2019-05-22T10:39:11.557Z,98684.63
2019-05-22T10:41:40.414Z,98692.88
2019-05-22T10:44:08.606Z,98698.78
2019-05-22T10:46:36.825Z,98697.66
2019-05-22T10:49:05.024Z,98698.50
2019-05-22T10:51:34.093Z,98704.84
2019-05-22T10:54:03.328Z,98709.97
2019-05-22T10:56:33.013Z,98704.89
2019-05-22T10:59:01.835Z,98705.14
2019-05-22T11:01:30.690Z,98711.25
2019-05-22T11:03:58.896Z,98712.17
2019-05-22T11:06:27.121Z,98719.78
2019-05-22T11:08:55.323Z,98713.34
2019-05-22T11:11:24.006Z,98718.48
2019-05-22T11:14:01.480Z,98715.70
2019-05-22T11:16:22.992Z,98718.23
2019-05-22T11:18:51.471Z,98716.59
2019-05-22T11:21:19.681Z,98715.38
2019-05-22T11:23:52.523Z,98719.51
2019-05-22T11:26:17.824Z,98727.70
2019-05-22T11:28:46.201Z,98728.60
2019-05-22T11:31:14.877Z,98731.97
2019-05-22T11:33:43.071Z,98729.34
2019-05-22T11:36:11.639Z,98725.17
2019-05-22T11:38:39.829Z,98725.47
2019-05-22T11:41:08.716Z,98727.17
2019-05-22T11:43:36.936Z,98728.40
2019-05-22T11:46:05.695Z,98721.33
2019-05-22T11:48:33.904Z,98724.77
2019-05-22T11:51:02.286Z,98733.07
2019-05-22T11:53:30.486Z,98734.76
2019-05-22T11:55:58.703Z,98729.19
2019-05-22T11:58:26.909Z,98730.73
2019-05-22T12:00:55.125Z,98734.85
2019-05-22T12:03:25.143Z,98734.92
2019-05-22T12:05:54.455Z,98735.77
2019-05-22T12:08:23.510Z,98726.06
2019-05-22T12:10:52.478Z,98724.95
2019-05-22T12:13:21.666Z,98727.80
2019-05-22T12:15:50.336Z,98727.48
2019-05-22T12:18:18.553Z,98731.34
2019-05-22T12:20:46.762Z,98728.41
2019-05-22T12:23:14.972Z,98731.58
2019-05-22T12:25:44.801Z,98739.66
2019-05-22T12:28:13.226Z,98720.80
2019-05-22T12:30:42.466Z,98730.46
2019-05-22T12:33:13.680Z,98732.34
2019-05-22T12:35:41.183Z,98720.03
2019-05-22T12:38:10.036Z,98720.03
2019-05-22T12:40:39.184Z,98720.49
2019-05-22T12:43:08.736Z,98720.88
2019-05-22T12:45:36.931Z,98723.23
2019-05-22T12:48:06.307Z,98723.23
2019-05-22T12:50:34.506Z,98725.02
2019-05-22T12:53:04.525Z,98731.78
2019-05-22T12:55:33.391Z,98730.02
2019-05-22T12:58:02.170Z,98727.48
2019-05-22T13:00:31.326Z,98732.26
2019-05-22T13:03:00.807Z,98729.39
2019-05-22T13:05:30.016Z,98731.14
2019-05-22T13:07:58.369Z,98728.33
2019-05-22T13:10:26.637Z,98725.60
2019-05-22T13:12:55.231Z,98728.92
2019-05-22T13:15:23.495Z,98724.69
2019-05-22T13:17:52.382Z,98731.18
2019-05-22T13:20:40.526Z,98726.08
2019-05-22T13:22:52.896Z,98723.58
2019-05-22T13:25:22.261Z,98733.44
2019-05-22T13:27:50.709Z,98733.16
2019-05-22T13:30:19.750Z,98735.30
2019-05-22T13:32:48.824Z,98732.91
2019-05-22T13:35:17.582Z,98736.80
2019-05-22T13:37:46.233Z,98737.25
2019-05-22T13:40:27.195Z,98731.04
2019-05-22T13:42:44.530Z,98726.47
2019-05-22T13:45:27.959Z,98725.06
2019-05-22T13:47:43.858Z,98732.34
2019-05-22T13:50:12.862Z,98730.91
2019-05-22T13:52:41.143Z,98731.44
2019-05-22T13:55:10.751Z,98720.29
2019-05-22T13:57:40.889Z,98725.94
2019-05-22T14:00:09.830Z,98721.06
2019-05-22T14:02:38.199Z,98734.09
2019-05-22T14:05:13.565Z,98737.27
2019-05-22T14:07:39.308Z,98733.55
2019-05-22T14:10:08.747Z,98735.19
2019-05-22T14:12:36.964Z,98732.10
2019-05-22T14:15:08.183Z,98751.58
2019-05-22T14:17:36.451Z,98736.06
2019-05-22T14:20:06.092Z,98741.87
2019-05-22T14:22:34.294Z,98739.78
2019-05-22T14:25:02.577Z,98740.97
2019-05-22T14:27:30.750Z,98747.28
2019-05-22T14:29:58.954Z,98744.13
2019-05-22T14:32:29.834Z,98746.16
2019-05-22T14:34:57.450Z,98740.81
2019-05-22T14:37:25.657Z,98737.11
2019-05-22T14:39:53.943Z,98740.71
2019-05-22T14:42:22.813Z,98744.17
2019-05-22T14:44:51.008Z,98746.11
2019-05-22T14:47:19.475Z,98745.41
2019-05-22T14:49:47.675Z,98747.05
2019-05-22T14:52:16.132Z,98741.44
2019-05-22T14:54:44.337Z,98748.06
2019-05-22T14:57:12.539Z,98743.00
2019-05-22T14:59:40.742Z,98745.33
2019-05-22T15:02:10.268Z,98740.03
2019-05-22T15:04:38.485Z,98736.12
2019-05-22T15:07:07.918Z,98746.80
2019-05-22T15:09:36.115Z,98741.28
2019-05-22T15:12:04.397Z,98732.38
2019-05-22T15:14:32.603Z,98735.34
2019-05-22T15:17:00.796Z,98733.66
2019-05-22T15:19:29.269Z,98734.70
2019-05-22T15:21:57.463Z,98729.82
2019-05-22T15:24:25.893Z,98739.47
2019-05-22T15:26:54.047Z,98736.11
2019-05-22T15:29:22.245Z,98737.91
2019-05-22T15:31:50.514Z,98737.06
2019-05-22T15:34:19.763Z,98737.43
2019-05-22T15:36:47.961Z,98740.49
2019-05-22T15:39:17.400Z,98739.45
2019-05-22T15:41:46.259Z,98745.55
2019-05-22T15:44:14.556Z,98731.72
2019-05-22T15:46:42.748Z,98736.05
2019-05-22T15:49:11.281Z,98734.30
2019-05-22T15:51:40.250Z,98736.39
2019-05-22T15:54:08.813Z,98727.61
2019-05-22T15:56:37.878Z,98729.48
2019-05-22T15:59:07.573Z,98724.36
2019-05-22T16:01:37.207Z,98726.22
2019-05-22T16:04:06.183Z,98724.88
2019-05-22T16:06:35.738Z,98721.87
2019-05-22T16:09:06.367Z,98724.24
2019-05-22T16:11:46.056Z,98719.09
2019-05-22T16:14:14.798Z,98721.44
2019-05-22T16:16:43.625Z,98722.27
2019-05-22T16:19:12.507Z,98715.02
2019-05-22T16:21:44.094Z,98715.86
2019-05-22T16:24:12.886Z,98714.48
2019-05-22T16:26:41.531Z,98711.77
2019-05-22T16:29:10.116Z,98709.58
2019-05-22T16:31:39.584Z,98698.86
2019-05-22T16:34:07.958Z,98698.83
2019-05-22T16:36:36.154Z,98703.59
2019-05-22T16:39:06.511Z,98704.20
2019-05-22T16:41:34.428Z,98707.85
2019-05-22T16:44:03.594Z,98711.30
2019-05-22T16:46:32.366Z,98709.38
2019-05-22T16:49:01.353Z,98701.11
2019-05-22T16:51:30.506Z,98700.09
2019-05-22T16:54:00.870Z,98703.13
2019-05-22T16:56:28.993Z,98702.17
2019-05-22T16:58:57.299Z,98698.91
2019-05-22T17:01:26.386Z,98705.36
2019-05-22T17:03:55.768Z,98704.27
2019-05-22T17:06:24.406Z,98700.77
2019-05-22T17:08:53.672Z,98706.52
2019-05-22T17:11:22.357Z,98706.91
2019-05-22T17:13:50.827Z,98701.64
2019-05-22T17:16:19.027Z,98702.09
2019-05-22T17:18:48.644Z,98695.93
2019-05-22T17:21:17.901Z,98696.58
2019-05-22T17:23:46.961Z,98694.38
2019-05-22T17:26:15.549Z,98693.53
2019-05-22T17:28:45.091Z,98692.28
2019-05-22T17:31:13.367Z,98697.41
2019-05-22T17:33:41.834Z,98696.38
2019-05-22T17:36:10.305Z,98694.59
2019-05-22T17:38:38.767Z,98694.08
2019-05-22T17:41:06.968Z,98699.19
2019-05-22T17:43:35.930Z,98701.98
2019-05-22T17:46:04.547Z,98696.69
2019-05-22T17:48:33.108Z,98703.02
2019-05-22T17:51:01.308Z,98699.53
2019-05-22T17:53:29.767Z,98699.75
2019-05-22T17:55:57.978Z,98701.76
2019-05-22T17:58:29.982Z,98704.14
2019-05-22T18:00:56.128Z,98704.58
2019-05-22T18:03:24.591Z,98703.39
2019-05-22T18:05:53.310Z,98696.88
2019-05-22T18:08:22.072Z,98704.82
2019-05-22T18:10:50.845Z,98705.34
2019-05-22T18:13:19.204Z,98702.91
2019-05-22T18:15:47.479Z,98699.22
2019-05-22T18:18:16.311Z,98709.34
2019-05-22T18:20:44.555Z,98706.77
2019-05-22T18:23:13.122Z,98703.69
2019-05-22T18:25:43.090Z,98701.19
2019-05-22T18:28:12.459Z,98708.06
2019-05-22T18:30:42.482Z,98704.41
2019-05-22T18:33:11.480Z,98702.39
2019-05-22T18:35:39.683Z,98713.28
2019-05-22T18:38:08.037Z,98706.63
2019-05-22T18:40:36.297Z,98707.23
2019-05-22T18:43:04.492Z,98713.41
2019-05-22T18:45:35.023Z,98713.23
2019-05-22T18:48:03.383Z,98709.90
2019-05-22T18:50:31.629Z,98713.97
2019-05-22T18:52:59.819Z,98715.33
2019-05-22T18:55:28.010Z,98718.20
2019-05-22T18:57:57.827Z,98722.04
2019-05-22T19:00:27.940Z,98719.23
2019-05-22T19:02:56.219Z,98724.44
2019-05-22T19:05:26.725Z,98719.55
2019-05-22T19:07:54.938Z,98722.64
2019-05-22T19:10:23.701Z,98728.75
2019-05-22T19:12:52.177Z,98727.09
2019-05-22T19:15:20.845Z,98720.77
2019-05-22T19:17:49.424Z,98728.22
2019-05-22T19:20:19.077Z,98723.73
2019-05-22T19:22:59.012Z,98727.99
2019-05-22T19:25:17.572Z,98726.20
2019-05-22T19:27:47.315Z,98726.45
2019-05-22T19:30:16.250Z,98725.27
2019-05-22T19:32:44.467Z,98724.84
2019-05-22T19:35:12.656Z,98732.06
2019-05-22T19:37:40.886Z,98734.54
2019-05-22T19:40:10.642Z,98735.66
2019-05-22T19:42:39.223Z,98736.19
2019-05-22T19:45:09.366Z,98737.20
2019-05-22T19:47:38.395Z,98735.69
2019-05-22T19:50:22.235Z,98735.36
2019-05-22T19:52:41.859Z,98739.05
2019-05-22T19:55:11.164Z,98737.13
2019-05-22T19:57:41.401Z,98736.83
2019-05-22T20:00:10.157Z,98740.92
2019-05-22T20:02:39.305Z,98742.39
2019-05-22T20:05:09.069Z,98740.41
2019-05-22T20:10:38.396Z,98741.80
2019-05-22T20:13:50.717Z,98744.77
2019-05-22T20:16:19.741Z,98747.92
2019-05-22T20:18:48.909Z,98745.03
2019-05-22T20:21:17.291Z,98750.39
2019-05-22T20:23:45.594Z,98741.03
2019-05-22T20:26:14.172Z,98749.17
2019-05-22T20:28:43.301Z,98749.29
2019-05-22T20:34:40.586Z,98757.62
2019-05-22T20:37:08.854Z,98752.66
2019-05-22T20:39:37.091Z,98754.79
2019-05-22T20:42:06.390Z,98752.73
2019-05-22T20:44:34.912Z,98752.84
2019-05-22T20:47:04.511Z,98757.83
2019-05-22T20:49:34.032Z,98758.59
2019-05-22T20:52:03.132Z,98758.27
2019-05-22T20:54:32.987Z,98755.62
2019-05-22T20:57:02.304Z,98759.03
2019-05-22T20:59:30.467Z,98759.05
2019-05-22T21:02:00.132Z,98761.17
2019-05-22T21:04:29.982Z,98762.02
2019-05-22T21:07:00.601Z,98761.14
2019-05-22T21:09:29.771Z,98769.54
2019-05-22T21:12:01.303Z,98764.88
2019-05-22T21:14:29.978Z,98767.12
2019-05-22T21:16:58.954Z,98770.31
2019-05-22T21:19:27.990Z,98767.52
2019-05-22T21:21:58.466Z,98767.19
2019-05-22T21:24:28.492Z,98770.56
2019-05-22T21:26:57.260Z,98767.92
2019-05-22T21:29:27.009Z,98767.38
2019-05-22T21:31:55.193Z,98766.86
2019-05-22T21:34:23.628Z,98772.95
2019-05-22T21:36:52.003Z,98769.58
2019-05-22T21:39:20.579Z,98769.98
2019-05-22T21:41:48.774Z,98777.28
2019-05-22T21:44:16.977Z,98778.45
2019-05-22T21:46:45.255Z,98771.19
2019-05-22T21:49:15.099Z,98774.71
2019-05-22T21:51:43.868Z,98772.55
2019-05-22T21:54:12.110Z,98772.18
2019-05-22T21:56:41.034Z,98768.95
2019-05-22T21:59:09.726Z,98770.56
2019-05-22T22:01:39.831Z,98773.80
2019-05-22T22:04:09.760Z,98774.50
2019-05-22T22:06:39.517Z,98776.59
2019-05-22T22:09:08.814Z,98776.25
2019-05-22T22:11:37.481Z,98764.95
2019-05-22T22:14:06.764Z,98777.61
2019-05-22T22:16:36.011Z,98782.53
2019-05-22T22:19:05.289Z,98784.58
2019-05-22T22:21:33.564Z,98792.91
2019-05-22T22:24:01.959Z,98799.50
2019-05-22T22:26:30.619Z,98798.08
2019-05-22T22:28:59.368Z,98800.28
2019-05-22T22:31:29.579Z,98798.36
2019-05-22T22:34:01.346Z,98794.58
2019-05-22T22:36:29.711Z,98793.94
2019-05-22T22:38:58.796Z,98793.91
2019-05-22T22:41:26.992Z,98800.19
2019-05-22T22:43:55.567Z,98798.01
2019-05-22T22:46:27.645Z,98800.58
2019-05-22T22:48:57.794Z,98799.55
2019-05-22T22:51:26.059Z,98801.59
2019-05-22T22:53:56.085Z,98796.66
2019-05-22T22:56:25.522Z,98804.91
2019-05-22T22:58:53.727Z,98802.27
2019-05-22T23:01:27.519Z,98802.84
2019-05-22T23:03:56.693Z,98807.84
2019-05-22T23:06:25.066Z,98810.20
2019-05-22T23:08:53.644Z,98819.17
2019-05-22T23:11:22.601Z,98815.73
2019-05-22T23:13:52.652Z,98819.55
2019-05-22T23:16:22.763Z,98815.23
2019-05-22T23:19:04.270Z,98816.92
2019-05-22T23:21:33.161Z,98818.70
2019-05-22T23:24:00.511Z,98823.31
2019-05-22T23:26:30.241Z,98820.59
2019-05-22T23:28:58.454Z,98818.18
2019-05-22T23:31:27.818Z,98820.11
2019-05-22T23:33:56.596Z,98816.94
2019-05-22T23:36:25.263Z,98815.56
2019-05-22T23:38:54.044Z,98813.95
2019-05-22T23:41:23.885Z,98815.77
2019-05-22T23:43:52.985Z,98811.30
2019-05-22T23:46:21.767Z,98817.82
2019-05-22T23:48:49.963Z,98813.09
2019-05-22T23:51:18.647Z,98812.39
2019-05-22T23:53:48.589Z,98827.52
2019-05-22T23:56:17.466Z,98816.22
2019-05-22T23:58:52.955Z,98808.59
